createdAt,value
2023-04-04T00:00:00.689Z,102750
2023-04-04T00:01:00.629Z,102750
2023-04-04T00:02:00.654Z,102750
2023-04-04T00:03:00.822Z,102750
2023-04-04T00:04:00.803Z,102750
2023-04-04T00:05:00.627Z,102750
2023-04-04T00:06:00.626Z,102750
2023-04-04T00:07:00.639Z,102750
2023-04-04T00:08:01.429Z,102760
2023-04-04T00:09:00.636Z,102760
2023-04-04T00:10:00.745Z,102760
2023-04-04T00:11:00.728Z,102760
2023-04-04T00:12:00.726Z,102760
2023-04-04T00:13:00.656Z,102760
2023-04-04T00:14:00.799Z,102760
2023-04-04T00:15:00.645Z,102760
2023-04-04T00:16:00.770Z,102760
2023-04-04T00:17:00.639Z,102760
2023-04-04T00:18:01.355Z,102760
2023-04-04T00:19:00.906Z,102760
2023-04-04T00:20:00.665Z,102760
2023-04-04T00:21:00.647Z,102760
2023-04-04T00:22:00.630Z,102760
2023-04-04T00:23:00.675Z,102760
2023-04-04T00:24:00.639Z,102760
2023-04-04T00:25:00.644Z,102760
2023-04-04T00:26:00.626Z,102760
2023-04-04T00:27:00.942Z,102760
2023-04-04T00:28:01.203Z,102760
2023-04-04T00:29:00.701Z,102760
2023-04-04T00:30:00.705Z,102750
2023-04-04T00:31:00.681Z,102750
2023-04-04T00:32:00.686Z,102760
2023-04-04T00:33:00.729Z,102760
2023-04-04T00:34:00.663Z,102750
2023-04-04T00:35:00.728Z,102750
2023-04-04T00:36:00.693Z,102760
2023-04-04T00:37:00.651Z,102760
2023-04-04T00:38:00.628Z,102760
2023-04-04T00:39:00.650Z,102760
2023-04-04T00:40:00.626Z,102760
2023-04-04T00:41:00.743Z,102760
2023-04-04T00:42:00.694Z,102750
2023-04-04T00:43:00.720Z,102750
2023-04-04T00:44:00.692Z,102750
2023-04-04T00:45:00.801Z,102750
2023-04-04T00:46:00.708Z,102750
2023-04-04T00:47:01.020Z,102750
2023-04-04T00:48:02.177Z,102750
2023-04-04T00:49:00.647Z,102750
2023-04-04T00:50:00.664Z,102750
2023-04-04T00:51:00.701Z,102750
2023-04-04T00:52:00.651Z,102750
2023-04-04T00:53:00.673Z,102750
2023-04-04T00:54:00.791Z,102750
2023-04-04T00:55:00.768Z,102750
2023-04-04T00:56:00.836Z,102750
2023-04-04T00:57:01.387Z,102750
2023-04-04T00:58:00.717Z,102750
2023-04-04T00:59:00.797Z,102750
2023-04-04T01:00:02.228Z,102750
2023-04-04T01:01:00.728Z,102750
2023-04-04T01:02:00.886Z,102740
2023-04-04T01:03:00.730Z,102740
2023-04-04T01:04:00.706Z,102740
2023-04-04T01:05:01.596Z,102740
2023-04-04T01:06:00.837Z,102740
2023-04-04T01:07:01.111Z,102740
2023-04-04T01:08:00.659Z,102750
2023-04-04T01:09:01.300Z,102750
2023-04-04T01:10:01.064Z,102740
2023-04-04T01:11:00.707Z,102740
2023-04-04T01:12:01.516Z,102740
2023-04-04T01:13:00.924Z,102740
2023-04-04T01:14:00.651Z,102740
2023-04-04T01:15:00.779Z,102740
2023-04-04T01:16:00.706Z,102730
2023-04-04T01:17:00.984Z,102730
2023-04-04T01:18:01.218Z,102730
2023-04-04T01:19:01.055Z,102730
2023-04-04T01:20:04.610Z,102730
2023-04-04T01:21:01.966Z,102730
2023-04-04T01:22:00.937Z,102730
2023-04-04T01:23:01.445Z,102730
2023-04-04T01:24:01.689Z,102730
2023-04-04T01:25:01.011Z,102730
2023-04-04T01:26:01.641Z,102730
2023-04-04T01:27:00.722Z,102730
2023-04-04T01:28:00.675Z,102730
2023-04-04T01:29:00.660Z,102730
2023-04-04T01:30:01.021Z,102730
2023-04-04T01:31:00.845Z,102730
2023-04-04T01:32:05.674Z,102730
2023-04-04T01:33:09.722Z,102730
2023-04-04T01:34:08.197Z,102730
2023-04-04T01:35:03.906Z,102730
2023-04-04T01:36:03.975Z,102730
2023-04-04T01:37:10.586Z,102730
2023-04-04T01:38:07.117Z,102730
2023-04-04T01:39:05.818Z,102730
2023-04-04T01:40:10.588Z,102730
2023-04-04T01:41:02.299Z,102730
2023-04-04T01:42:01.757Z,102730
2023-04-04T01:43:01.037Z,102730
2023-04-04T01:44:01.038Z,102730
2023-04-04T01:45:00.712Z,102730
2023-04-04T01:46:00.797Z,102730
2023-04-04T01:47:00.690Z,102730
2023-04-04T01:48:00.666Z,102730
2023-04-04T01:49:00.670Z,102730
2023-04-04T01:50:00.681Z,102730
2023-04-04T01:51:00.754Z,102730
2023-04-04T01:52:00.988Z,102720
2023-04-04T01:53:00.651Z,102720
2023-04-04T01:54:00.654Z,102720
2023-04-04T01:55:00.666Z,102720
2023-04-04T01:56:00.654Z,102720
2023-04-04T01:57:00.643Z,102720
2023-04-04T01:58:00.645Z,102720
2023-04-04T01:59:00.665Z,102720
2023-04-04T02:00:00.697Z,102720
2023-04-04T02:01:00.656Z,102720
2023-04-04T02:02:00.659Z,102720
2023-04-04T02:03:00.682Z,102720
2023-04-04T02:04:00.666Z,102730
2023-04-04T02:05:00.634Z,102730
2023-04-04T02:06:00.671Z,102720
2023-04-04T02:07:00.651Z,102720
2023-04-04T02:08:00.659Z,102720
2023-04-04T02:09:00.649Z,102720
2023-04-04T02:10:00.773Z,102720
2023-04-04T02:11:00.658Z,102720
2023-04-04T02:12:00.653Z,102720
2023-04-04T02:13:00.620Z,102720
2023-04-04T02:14:00.695Z,102730
2023-04-04T02:15:00.618Z,102730
2023-04-04T02:16:00.671Z,102720
2023-04-04T02:17:00.629Z,102720
2023-04-04T02:18:02.106Z,102720
2023-04-04T02:19:00.664Z,102720
2023-04-04T02:20:00.777Z,102730
2023-04-04T02:21:00.659Z,102730
2023-04-04T02:22:00.662Z,102730
2023-04-04T02:23:00.661Z,102730
2023-04-04T02:24:00.678Z,102730
2023-04-04T02:25:00.649Z,102730
2023-04-04T02:26:00.623Z,102740
2023-04-04T02:27:00.640Z,102740
2023-04-04T02:28:00.633Z,102740
2023-04-04T02:29:00.638Z,102740
2023-04-04T02:30:00.663Z,102750
2023-04-04T02:31:01.066Z,102750
2023-04-04T02:32:00.627Z,102750
2023-04-04T02:33:00.628Z,102750
2023-04-04T02:34:00.690Z,102750
2023-04-04T02:35:00.638Z,102750
2023-04-04T02:36:00.645Z,102740
2023-04-04T02:37:00.634Z,102740
2023-04-04T02:38:00.641Z,102740
2023-04-04T02:39:00.636Z,102740
2023-04-04T02:40:00.640Z,102740
2023-04-04T02:41:00.626Z,102740
2023-04-04T02:42:00.714Z,102740
2023-04-04T02:43:00.614Z,102740
2023-04-04T02:44:00.622Z,102740
2023-04-04T02:45:00.626Z,102740
2023-04-04T02:46:07.709Z,102730
2023-04-04T02:47:00.646Z,102730
2023-04-04T02:48:00.671Z,102730
2023-04-04T02:49:00.634Z,102730
2023-04-04T02:50:00.809Z,102730
2023-04-04T02:51:00.782Z,102730
2023-04-04T02:52:00.620Z,102730
2023-04-04T02:53:00.908Z,102730
2023-04-04T02:54:00.643Z,102730
2023-04-04T02:55:00.650Z,102730
2023-04-04T02:56:02.181Z,102730
2023-04-04T02:57:00.654Z,102730
2023-04-04T02:58:00.633Z,102730
2023-04-04T02:59:00.673Z,102730
2023-04-04T03:00:00.696Z,102730
2023-04-04T03:01:00.691Z,102730
2023-04-04T03:02:00.666Z,102720
2023-04-04T03:03:00.772Z,102720
2023-04-04T03:04:00.715Z,102720
2023-04-04T03:05:00.649Z,102720
2023-04-04T03:06:00.656Z,102720
2023-04-04T03:07:00.625Z,102720
2023-04-04T03:08:00.626Z,102720
2023-04-04T03:09:00.672Z,102720
2023-04-04T03:10:00.685Z,102720
2023-04-04T03:11:00.645Z,102720
2023-04-04T03:12:00.628Z,102720
2023-04-04T03:13:00.640Z,102720
2023-04-04T03:14:00.642Z,102730
2023-04-04T03:15:00.667Z,102730
2023-04-04T03:16:01.958Z,102720
2023-04-04T03:17:00.652Z,102720
2023-04-04T03:18:01.205Z,102720
2023-04-04T03:19:00.634Z,102720
2023-04-04T03:20:00.702Z,102720
2023-04-04T03:21:00.628Z,102720
2023-04-04T03:22:00.686Z,102720
2023-04-04T03:23:00.652Z,102720
2023-04-04T03:24:00.621Z,102720
2023-04-04T03:25:00.634Z,102720
2023-04-04T03:26:00.640Z,102710
2023-04-04T03:27:00.658Z,102710
2023-04-04T03:28:08.607Z,102710
2023-04-04T03:29:00.744Z,102710
2023-04-04T03:30:00.765Z,102720
2023-04-04T03:31:02.338Z,102720
2023-04-04T03:32:00.660Z,102710
2023-04-04T03:33:04.474Z,102710
2023-04-04T03:34:00.629Z,102710
2023-04-04T03:35:00.688Z,102710
2023-04-04T03:36:00.645Z,102700
2023-04-04T03:37:00.620Z,102700
2023-04-04T03:38:00.821Z,102710
2023-04-04T03:39:00.628Z,102710
2023-04-04T03:40:00.645Z,102710
2023-04-04T03:41:00.949Z,102710
2023-04-04T03:42:00.651Z,102700
2023-04-04T03:43:00.837Z,102700
2023-04-04T03:44:02.547Z,102700
2023-04-04T03:45:00.690Z,102700
2023-04-04T03:46:01.536Z,102700
2023-04-04T03:47:00.672Z,102700
2023-04-04T03:48:00.860Z,102700
2023-04-04T03:49:00.640Z,102700
2023-04-04T03:50:00.646Z,102700
2023-04-04T03:51:01.825Z,102700
2023-04-04T03:52:00.640Z,102700
2023-04-04T03:53:00.657Z,102700
2023-04-04T03:54:00.641Z,102700
2023-04-04T03:55:00.627Z,102700
2023-04-04T03:56:00.706Z,102700
2023-04-04T03:57:00.775Z,102700
2023-04-04T03:58:00.664Z,102700
2023-04-04T03:59:00.678Z,102700
2023-04-04T04:00:01.099Z,102710
2023-04-04T04:01:00.644Z,102710
2023-04-04T04:02:00.628Z,102700
2023-04-04T04:03:00.790Z,102700
2023-04-04T04:04:00.683Z,102700
2023-04-04T04:05:00.701Z,102700
2023-04-04T04:06:00.639Z,102700
2023-04-04T04:07:00.640Z,102700
2023-04-04T04:08:00.786Z,102700
2023-04-04T04:09:00.676Z,102700
2023-04-04T04:10:00.692Z,102700
2023-04-04T04:11:04.263Z,102700
2023-04-04T04:12:00.644Z,102700
2023-04-04T04:13:00.648Z,102700
2023-04-04T04:14:00.659Z,102700
2023-04-04T04:15:00.632Z,102700
2023-04-04T04:16:00.647Z,102700
2023-04-04T04:17:00.648Z,102700
2023-04-04T04:18:00.650Z,102700
2023-04-04T04:19:00.695Z,102700
2023-04-04T04:20:00.654Z,102700
2023-04-04T04:21:00.651Z,102700
2023-04-04T04:22:00.628Z,102700
2023-04-04T04:23:00.658Z,102700
2023-04-04T04:24:00.717Z,102700
2023-04-04T04:25:00.638Z,102700
2023-04-04T04:26:00.651Z,102700
2023-04-04T04:27:00.649Z,102700
2023-04-04T04:28:00.649Z,102700
2023-04-04T04:29:00.638Z,102700
2023-04-04T04:30:00.708Z,102700
2023-04-04T04:31:04.985Z,102700
2023-04-04T04:32:00.814Z,102700
2023-04-04T04:33:00.658Z,102700
2023-04-04T04:34:03.588Z,102700
2023-04-04T04:35:00.670Z,102700
2023-04-04T04:36:01.965Z,102700
2023-04-04T04:37:00.659Z,102700
2023-04-04T04:38:00.645Z,102700
2023-04-04T04:39:00.885Z,102700
2023-04-04T04:40:00.676Z,102700
2023-04-04T04:41:00.630Z,102700
2023-04-04T04:42:00.820Z,102700
2023-04-04T04:43:00.670Z,102700
2023-04-04T04:44:00.652Z,102700
2023-04-04T04:45:00.707Z,102700
2023-04-04T04:46:00.636Z,102700
2023-04-04T04:47:02.161Z,102700
2023-04-04T04:48:00.756Z,102700
2023-04-04T04:49:00.655Z,102700
2023-04-04T04:50:00.630Z,102700
2023-04-04T04:51:00.671Z,102700
2023-04-04T04:52:00.650Z,102710
2023-04-04T04:53:00.627Z,102710
2023-04-04T04:54:00.647Z,102710
2023-04-04T04:55:00.648Z,102710
2023-04-04T04:56:00.629Z,102710
2023-04-04T04:57:00.662Z,102710
2023-04-04T04:58:00.665Z,102710
2023-04-04T04:59:00.668Z,102710
2023-04-04T05:00:01.183Z,102710
2023-04-04T05:01:00.716Z,102710
2023-04-04T05:02:00.638Z,102720
2023-04-04T05:03:00.736Z,102720
2023-04-04T05:04:00.658Z,102710
2023-04-04T05:05:00.656Z,102710
2023-04-04T05:06:00.628Z,102710
2023-04-04T05:07:00.774Z,102710
2023-04-04T05:08:01.222Z,102720
2023-04-04T05:09:00.657Z,102720
2023-04-04T05:10:00.692Z,102710
2023-04-04T05:11:00.646Z,102710
2023-04-04T05:12:00.628Z,102710
2023-04-04T05:13:00.651Z,102710
2023-04-04T05:14:00.649Z,102710
2023-04-04T05:15:00.659Z,102710
2023-04-04T05:16:00.630Z,102720
2023-04-04T05:17:00.661Z,102720
2023-04-04T05:18:00.700Z,102720
2023-04-04T05:19:00.680Z,102720
2023-04-04T05:20:00.713Z,102720
2023-04-04T05:21:00.626Z,102720
2023-04-04T05:22:00.671Z,102720
2023-04-04T05:23:00.617Z,102720
2023-04-04T05:24:00.640Z,102720
2023-04-04T05:25:00.642Z,102720
2023-04-04T05:26:00.648Z,102720
2023-04-04T05:27:00.622Z,102720
2023-04-04T05:28:00.644Z,102720
2023-04-04T05:29:00.638Z,102720
2023-04-04T05:30:00.647Z,102720
2023-04-04T05:31:00.650Z,102720
2023-04-04T05:32:00.710Z,102720
2023-04-04T05:33:00.685Z,102720
2023-04-04T05:34:00.629Z,102730
2023-04-04T05:35:00.750Z,102730
2023-04-04T05:36:00.713Z,102720
2023-04-04T05:37:00.640Z,102720
2023-04-04T05:38:00.652Z,102730
2023-04-04T05:39:00.797Z,102730
2023-04-04T05:40:00.644Z,102730
2023-04-04T05:41:00.662Z,102730
2023-04-04T05:42:00.640Z,102730
2023-04-04T05:43:00.668Z,102730
2023-04-04T05:44:00.713Z,102730
2023-04-04T05:45:00.657Z,102730
2023-04-04T05:46:00.673Z,102740
2023-04-04T05:47:00.639Z,102740
2023-04-04T05:48:00.697Z,102740
2023-04-04T05:49:00.654Z,102740
2023-04-04T05:50:00.632Z,102740
2023-04-04T05:51:00.629Z,102740
2023-04-04T05:52:00.627Z,102740
2023-04-04T05:53:00.625Z,102740
2023-04-04T05:54:00.627Z,102740
2023-04-04T05:55:00.638Z,102740
2023-04-04T05:56:00.695Z,102740
2023-04-04T05:57:00.622Z,102740
2023-04-04T05:58:00.647Z,102740
2023-04-04T05:59:00.770Z,102740
2023-04-04T06:00:00.662Z,102740
2023-04-04T06:01:00.642Z,102740
2023-04-04T06:02:00.637Z,102740
2023-04-04T06:03:00.887Z,102740
2023-04-04T06:04:00.684Z,102740
2023-04-04T06:05:00.683Z,102740
2023-04-04T06:06:01.284Z,102740
2023-04-04T06:07:00.775Z,102740
2023-04-04T06:08:00.630Z,102730
2023-04-04T06:09:00.660Z,102730
2023-04-04T06:10:00.841Z,102740
2023-04-04T06:11:00.652Z,102740
2023-04-04T06:12:00.999Z,102740
2023-04-04T06:13:00.647Z,102740
2023-04-04T06:14:00.634Z,102740
2023-04-04T06:15:00.772Z,102740
2023-04-04T06:16:00.814Z,102740
2023-04-04T06:17:01.078Z,102740
2023-04-04T06:18:00.676Z,102750
2023-04-04T06:19:00.694Z,102750
2023-04-04T06:20:00.651Z,102750
2023-04-04T06:21:00.677Z,102750
2023-04-04T06:22:00.623Z,102750
2023-04-04T06:23:00.644Z,102750
2023-04-04T06:24:00.617Z,102750
2023-04-04T06:25:00.662Z,102750
2023-04-04T06:26:01.216Z,102750
2023-04-04T06:27:00.697Z,102750
2023-04-04T06:28:00.717Z,102750
2023-04-04T06:29:00.642Z,102750
2023-04-04T06:32:00.552Z,102750
2023-04-04T06:33:00.570Z,102750
2023-04-04T06:34:00.541Z,102750
2023-04-04T06:35:00.565Z,102750
2023-04-04T06:36:00.575Z,102750
2023-04-04T06:37:00.576Z,102750
2023-04-04T06:38:00.581Z,102750
2023-04-04T06:39:00.617Z,102750
2023-04-04T06:40:00.617Z,102750
2023-04-04T06:41:00.561Z,102750
2023-04-04T06:42:00.598Z,102760
2023-04-04T06:43:00.588Z,102760
2023-04-04T06:44:00.646Z,102760
2023-04-04T06:45:00.614Z,102760
2023-04-04T06:46:00.632Z,102760
2023-04-04T06:47:00.750Z,102760
2023-04-04T06:48:00.956Z,102760
2023-04-04T06:49:00.573Z,102760
2023-04-04T06:50:00.580Z,102760
2023-04-04T06:51:00.595Z,102760
2023-04-04T06:52:00.620Z,102760
2023-04-04T06:53:00.714Z,102760
2023-04-04T06:54:00.658Z,102760
2023-04-04T06:55:00.642Z,102760
2023-04-04T06:56:00.596Z,102760
2023-04-04T06:57:00.577Z,102760
2023-04-04T06:58:00.574Z,102760
2023-04-04T06:59:00.593Z,102760
2023-04-04T07:00:01.089Z,102760
2023-04-04T07:01:00.904Z,102760
2023-04-04T07:02:00.644Z,102760
2023-04-04T07:03:00.750Z,102760
2023-04-04T07:04:00.573Z,102760
2023-04-04T07:05:00.757Z,102760
2023-04-04T07:06:02.038Z,102770
2023-04-04T07:07:00.585Z,102770
2023-04-04T07:08:00.559Z,102770
2023-04-04T07:09:00.607Z,102770
2023-04-04T07:10:00.613Z,102770
2023-04-04T07:11:00.685Z,102770
2023-04-04T07:12:00.580Z,102770
2023-04-04T07:13:00.577Z,102770
2023-04-04T07:14:00.576Z,102770
2023-04-04T07:15:00.585Z,102770
2023-04-04T07:16:00.669Z,102770
2023-04-04T07:17:02.203Z,102770
2023-04-04T07:18:00.625Z,102770
2023-04-04T07:19:00.691Z,102770
2023-04-04T07:20:02.847Z,102760
2023-04-04T07:21:00.587Z,102760
2023-04-04T07:22:00.574Z,102770
2023-04-04T07:23:00.560Z,102770
2023-04-04T07:24:00.661Z,102760
2023-04-04T07:25:00.562Z,102760
2023-04-04T07:26:00.566Z,102760
2023-04-04T07:27:00.566Z,102760
2023-04-04T07:28:11.801Z,102760
2023-04-04T07:29:00.555Z,102760
2023-04-04T07:30:00.682Z,102750
2023-04-04T07:31:00.667Z,102750
2023-04-04T07:32:00.606Z,102750
2023-04-04T07:33:01.219Z,102750
2023-04-04T07:34:00.582Z,102750
2023-04-04T07:35:00.589Z,102750
2023-04-04T07:36:00.919Z,102750
2023-04-04T07:37:00.636Z,102750
2023-04-04T07:38:00.578Z,102750
2023-04-04T07:39:00.562Z,102750
2023-04-04T07:40:00.585Z,102750
2023-04-04T07:41:02.382Z,102750
2023-04-04T07:42:00.552Z,102750
2023-04-04T07:43:00.574Z,102750
2023-04-04T07:44:00.572Z,102750
2023-04-04T07:45:00.569Z,102750
2023-04-04T07:46:00.754Z,102750
2023-04-04T07:47:09.328Z,102750
2023-04-04T07:48:00.761Z,102750
2023-04-04T07:49:00.580Z,102750
2023-04-04T07:50:00.783Z,102760
2023-04-04T07:51:01.959Z,102760
2023-04-04T07:52:00.573Z,102760
2023-04-04T07:53:00.574Z,102760
2023-04-04T07:54:00.585Z,102750
2023-04-04T07:55:00.572Z,102750
2023-04-04T07:56:00.565Z,102750
2023-04-04T07:57:00.808Z,102750
2023-04-04T07:58:00.556Z,102750
2023-04-04T07:59:00.713Z,102750
2023-04-04T08:00:00.573Z,102750
2023-04-04T08:01:01.038Z,102750
2023-04-04T08:02:00.618Z,102750
2023-04-04T08:03:00.627Z,102750
2023-04-04T08:04:00.816Z,102750
2023-04-04T08:05:00.588Z,102750
2023-04-04T08:06:00.566Z,102750
2023-04-04T08:07:00.559Z,102750
2023-04-04T08:08:00.577Z,102750
2023-04-04T08:09:00.566Z,102750
2023-04-04T08:10:00.570Z,102750
2023-04-04T08:11:00.572Z,102750
2023-04-04T08:12:01.035Z,102750
2023-04-04T08:13:00.560Z,102750
2023-04-04T08:14:00.586Z,102750
2023-04-04T08:15:00.607Z,102750
2023-04-04T08:16:00.673Z,102760
2023-04-04T08:17:00.592Z,102760
2023-04-04T08:18:00.629Z,102760
2023-04-04T08:19:00.624Z,102760
2023-04-04T08:20:00.563Z,102760
2023-04-04T08:21:00.568Z,102760
2023-04-04T08:22:00.575Z,102760
2023-04-04T08:23:00.560Z,102760
2023-04-04T08:24:00.607Z,102760
2023-04-04T08:25:00.601Z,102760
2023-04-04T08:26:00.548Z,102750
2023-04-04T08:27:05.200Z,102750
2023-04-04T08:28:01.270Z,102750
2023-04-04T08:29:00.593Z,102750
2023-04-04T08:30:00.573Z,102750
2023-04-04T08:31:00.573Z,102750
2023-04-04T08:32:00.648Z,102750
2023-04-04T08:33:00.593Z,102750
2023-04-04T08:34:00.585Z,102750
2023-04-04T08:35:00.607Z,102750
2023-04-04T08:36:00.613Z,102740
2023-04-04T08:37:00.564Z,102740
2023-04-04T08:38:00.563Z,102740
2023-04-04T08:39:00.616Z,102740
2023-04-04T08:40:01.124Z,102740
2023-04-04T08:44:02.090Z,102740
2023-04-04T08:45:01.538Z,102740
2023-04-04T08:46:02.851Z,102730
2023-04-04T08:47:02.139Z,102730
2023-04-04T08:48:02.429Z,102740
2023-04-04T08:49:00.934Z,102740
2023-04-04T08:50:03.199Z,102740
2023-04-04T08:51:02.335Z,102740
2023-04-04T08:52:01.623Z,102730
2023-04-04T08:53:00.912Z,102730
2023-04-04T08:54:01.489Z,102730
2023-04-04T08:55:03.158Z,102730
2023-04-04T08:56:00.601Z,102730
2023-04-04T08:57:00.767Z,102730
2023-04-04T08:58:00.665Z,102730
2023-04-04T09:00:00.886Z,102730
2023-04-04T09:02:10.361Z,102730
2023-04-04T09:04:00.792Z,102730
2023-04-04T09:06:01.336Z,102730
2023-04-04T09:07:02.249Z,102730
2023-04-04T09:08:01.700Z,102730
2023-04-04T09:09:01.686Z,102730
2023-04-04T09:10:01.838Z,102740
2023-04-04T09:11:01.542Z,102740
2023-04-04T09:12:00.774Z,102740
2023-04-04T09:13:14.944Z,102740
2023-04-04T09:14:01.425Z,102740
2023-04-04T09:15:01.408Z,102740
2023-04-04T09:16:00.711Z,102740
2023-04-04T09:17:00.804Z,102740
2023-04-04T09:18:00.684Z,102740
2023-04-04T09:19:00.673Z,102740
2023-04-04T09:20:01.226Z,102730
2023-04-04T09:21:07.390Z,102730
2023-04-04T09:22:00.653Z,102730
2023-04-04T09:23:00.683Z,102730
2023-04-04T09:24:00.997Z,102730
2023-04-04T09:25:00.663Z,102730
2023-04-04T09:26:04.286Z,102730
2023-04-04T09:27:00.790Z,102730
2023-04-04T09:28:01.561Z,102730
2023-04-04T09:29:00.659Z,102730
2023-04-04T09:30:03.930Z,102730
2023-04-04T09:31:01.272Z,102730
2023-04-04T09:32:00.701Z,102730
2023-04-04T09:33:04.411Z,102730
2023-04-04T09:34:00.714Z,102730
2023-04-04T09:35:00.726Z,102730
2023-04-04T09:36:09.657Z,102730
2023-04-04T09:37:01.929Z,102730
2023-04-04T09:38:00.666Z,102730
2023-04-04T09:39:01.898Z,102730
2023-04-04T09:40:03.308Z,102730
2023-04-04T09:41:00.924Z,102730
2023-04-04T09:42:00.686Z,102730
2023-04-04T09:43:01.671Z,102730
2023-04-04T09:44:00.719Z,102720
2023-04-04T09:45:01.360Z,102720
2023-04-04T09:46:02.143Z,102720
2023-04-04T09:47:13.614Z,102720
2023-04-04T09:48:01.105Z,102710
2023-04-04T09:49:00.660Z,102710
2023-04-04T09:50:01.583Z,102710
2023-04-04T09:51:03.567Z,102710
2023-04-04T09:52:00.672Z,102720
2023-04-04T09:53:00.663Z,102720
2023-04-04T09:54:01.115Z,102720
2023-04-04T09:55:01.690Z,102720
2023-04-04T09:56:00.789Z,102710
2023-04-04T09:57:00.672Z,102710
2023-04-04T09:58:10.586Z,102710
2023-04-04T09:59:04.303Z,102710
2023-04-04T10:00:03.070Z,102710
2023-04-04T10:01:01.928Z,102710
2023-04-04T10:02:01.148Z,102710
2023-04-04T10:03:01.519Z,102710
2023-04-04T10:04:02.824Z,102710
2023-04-04T10:06:00.632Z,102710
2023-04-04T10:07:00.697Z,102710
2023-04-04T10:08:10.570Z,102710
2023-04-04T10:09:00.671Z,102710
2023-04-04T10:10:01.277Z,102710
2023-04-04T10:11:09.845Z,102710
2023-04-04T10:12:08.266Z,102710
2023-04-04T10:13:00.646Z,102710
2023-04-04T10:14:01.246Z,102710
2023-04-04T10:15:01.181Z,102710
2023-04-04T10:16:01.253Z,102700
2023-04-04T10:17:05.599Z,102700
2023-04-04T10:18:01.191Z,102710
2023-04-04T10:19:00.693Z,102710
2023-04-04T10:20:02.541Z,102700
2023-04-04T10:21:14.558Z,102700
2023-04-04T10:22:00.854Z,102700
2023-04-04T10:23:00.916Z,102700
2023-04-04T10:24:01.810Z,102700
2023-04-04T10:25:00.895Z,102700
2023-04-04T10:26:00.693Z,102700
2023-04-04T10:27:00.651Z,102700
2023-04-04T10:28:00.632Z,102700
2023-04-04T10:29:00.840Z,102700
2023-04-04T10:30:00.892Z,102700
2023-04-04T10:31:10.639Z,102700
2023-04-04T10:32:03.912Z,102700
2023-04-04T10:33:05.656Z,102700
2023-04-04T10:34:10.583Z,102700
2023-04-04T10:35:02.447Z,102700
2023-04-04T10:36:01.052Z,102700
2023-04-04T10:37:00.625Z,102700
2023-04-04T10:38:01.600Z,102690
2023-04-04T10:39:06.524Z,102690
2023-04-04T10:40:05.805Z,102690
2023-04-04T10:41:01.259Z,102690
2023-04-04T10:42:04.215Z,102690
2023-04-04T10:43:01.864Z,102690
2023-04-04T10:44:07.993Z,102690
2023-04-04T10:45:12.848Z,102690
2023-04-04T10:46:06.925Z,102690
2023-04-04T10:47:10.593Z,102690
2023-04-04T10:48:02.034Z,102690
2023-04-04T10:49:01.028Z,102690
2023-04-04T10:50:01.846Z,102690
2023-04-04T10:51:01.378Z,102690
2023-04-04T10:52:01.098Z,102680
2023-04-04T10:53:00.731Z,102680
2023-04-04T10:54:01.099Z,102670
2023-04-04T10:55:03.533Z,102670
2023-04-04T10:56:01.185Z,102670
2023-04-04T10:57:01.135Z,102670
2023-04-04T10:58:00.763Z,102670
2023-04-04T10:59:08.898Z,102670
2023-04-04T11:00:02.747Z,102670
2023-04-04T11:01:00.701Z,102670
2023-04-04T11:02:01.312Z,102660
2023-04-04T11:03:01.202Z,102660
2023-04-04T11:04:10.585Z,102660
2023-04-04T11:05:10.584Z,102660
2023-04-04T11:06:00.635Z,102660
2023-04-04T11:07:10.601Z,102660
2023-04-04T11:08:07.595Z,102670
2023-04-04T11:09:00.652Z,102670
2023-04-04T11:10:00.664Z,102660
2023-04-04T11:11:05.163Z,102660
2023-04-04T11:12:08.162Z,102650
2023-04-04T11:13:11.719Z,102650
2023-04-04T11:14:03.678Z,102650
2023-04-04T11:15:01.663Z,102650
2023-04-04T11:16:03.170Z,102650
2023-04-04T11:17:03.623Z,102650
2023-04-04T11:18:10.958Z,102650
2023-04-04T11:19:00.766Z,102650
2023-04-04T11:20:00.683Z,102650
2023-04-04T11:21:01.357Z,102650
2023-04-04T11:22:01.486Z,102640
2023-04-04T11:23:10.568Z,102640
2023-04-04T11:24:03.906Z,102650
2023-04-04T11:25:10.570Z,102650
2023-04-04T11:26:00.647Z,102640
2023-04-04T11:27:00.631Z,102640
2023-04-04T11:28:04.886Z,102640
2023-04-04T11:29:01.398Z,102640
2023-04-04T11:30:10.589Z,102640
2023-04-04T11:31:10.592Z,102640
2023-04-04T11:32:00.662Z,102640
2023-04-04T11:33:07.080Z,102640
2023-04-04T11:34:10.566Z,102650
2023-04-04T11:35:03.426Z,102650
2023-04-04T11:36:05.069Z,102640
2023-04-04T11:37:10.568Z,102640
2023-04-04T11:38:00.899Z,102640
2023-04-04T11:39:03.967Z,102640
2023-04-04T11:40:07.933Z,102630
2023-04-04T11:41:00.663Z,102630
2023-04-04T11:42:01.749Z,102630
2023-04-04T11:43:05.748Z,102630
2023-04-04T11:44:07.097Z,102630
2023-04-04T11:45:02.378Z,102630
2023-04-04T11:46:04.398Z,102630
2023-04-04T11:47:01.818Z,102630
2023-04-04T11:48:02.094Z,102630
2023-04-04T11:49:01.455Z,102630
2023-04-04T11:50:01.175Z,102630
2023-04-04T11:51:02.007Z,102630
2023-04-04T11:52:05.124Z,102630
2023-04-04T11:53:03.856Z,102630
2023-04-04T11:54:00.816Z,102630
2023-04-04T11:55:00.677Z,102630
2023-04-04T11:56:00.629Z,102620
2023-04-04T11:57:00.665Z,102620
2023-04-04T11:58:10.678Z,102620
2023-04-04T11:59:11.010Z,102620
2023-04-04T12:00:00.648Z,102630
2023-04-04T12:01:00.702Z,102630
2023-04-04T12:02:00.685Z,102620
2023-04-04T12:03:00.849Z,102620
2023-04-04T12:04:00.670Z,102620
2023-04-04T12:05:00.779Z,102620
2023-04-04T12:06:00.909Z,102620
2023-04-04T12:07:00.750Z,102620
2023-04-04T12:08:00.722Z,102620
2023-04-04T12:09:01.559Z,102620
2023-04-04T12:10:01.640Z,102620
2023-04-04T12:11:05.849Z,102620
2023-04-04T12:12:00.690Z,102620
2023-04-04T12:13:01.095Z,102620
2023-04-04T12:14:00.771Z,102620
2023-04-04T12:15:14.537Z,102620
2023-04-04T12:16:01.267Z,102610
2023-04-04T12:17:01.397Z,102610
2023-04-04T12:18:01.036Z,102610
2023-04-04T12:19:00.863Z,102610
2023-04-04T12:20:00.637Z,102600
2023-04-04T12:21:00.653Z,102600
2023-04-04T12:22:00.714Z,102600
2023-04-04T12:23:00.661Z,102600
2023-04-04T12:24:00.693Z,102600
2023-04-04T12:25:00.877Z,102600
2023-04-04T12:26:00.944Z,102600
2023-04-04T12:27:01.238Z,102600
2023-04-04T12:28:01.653Z,102590
2023-04-04T12:29:00.775Z,102590
2023-04-04T12:30:00.914Z,102590
2023-04-04T12:31:01.261Z,102590
2023-04-04T12:32:01.189Z,102590
2023-04-04T12:33:00.794Z,102590
2023-04-04T12:34:00.753Z,102590
2023-04-04T12:35:01.311Z,102590
2023-04-04T12:36:01.684Z,102580
2023-04-04T12:37:01.171Z,102580
2023-04-04T12:38:02.024Z,102590